Twin Lakes, Wisconsin
Current Conditions -  °F | °C
As of 2:55 AM on Monday 22 Dec 2014 (Local Time) from KBUU Reporting Station
Overcast Overcast  
Wind Chill: 24°   Ceiling: 3700
Heat Index: 31°   Visibility: 7mi
Dew Point: 27°   Wind: 8mph
Humidity: 85%   Direction: 150°SSE
Pressure: 29.96"   Gusts: NA
Location:  42.53°N, 88.25°W
Report Text: KBUU 220855Z AUTO 15007KT 7SM SCT028 BKN037 OVC060 00/M03 A2996 RMK AO2 T10031026
Loading
Personal Weather Stations






























Interactive Weather Map New forecast layout! Learn more

10-Day Weather Forecast

Advertisements
Track Severe Weather on mobile